Time;durP1;ratioP1;P1;durP2;ratioP2;P2;SDS_P1;SDS_P2;PMS_P1;PMS_P2;Temp;Humidity;BMP_temperature;BMP_pressure;BME280_temperature;BME280_humidity;BME280_pressure;Samples;Min_cycle;Max_cycle;Signal;HPM_P1;HPM_P2
2023/03/10 05:38:59;;;;;;;;;;;;;;;6.53;100.00;98877.17;109992;1245;24938;-45
2023/03/10 05:41:26;;;;;;;;;;;;;;;6.54;100.00;98880.97;109668;1251;26550;-52
2023/03/10 05:44:01;;;;;;;;;;;;;;;6.55;100.00;98882.88;111871;1250;22568;-53
2023/03/10 05:46:30;;;;;;;;;;;;;;;6.57;100.00;98887.20;112816;1250;23323;-54
2023/03/10 05:48:57;;;;;;;;;;;;;;;6.58;100.00;98895.34;111711;1250;22890;-45
2023/03/10 05:51:24;;;;;;;;;;;;;;;6.61;100.00;98896.00;111829;1251;22841;-54
2023/03/10 05:53:51;;;;;;;;;;;;;;;6.64;100.00;98892.69;110607;1250;22491;-51
2023/03/10 05:56:21;;;;;;;;;;;;;;;6.66;100.00;98898.22;111433;1250;22481;-45
2023/03/10 05:58:51;;;;;;;;;;;;;;;6.64;100.00;98900.48;112472;1250;22495;-52
2023/03/10 06:01:19;;;;;;;;;;;;;;;6.61;100.00;98905.54;111524;1251;22464;-53
2023/03/10 06:03:46;;;;;;;;;;;;;;;6.57;100.00;98911.45;112819;1251;22536;-54
2023/03/10 06:06:14;;;;;;;;;;;;;;;6.53;99.91;98911.13;112882;1251;23195;-45
2023/03/10 06:08:41;;;;;;;;;;;;;;;6.50;100.00;98918.09;112773;1250;22471;-45
2023/03/10 06:11:08;;;;;;;;;;;;;;;6.50;100.00;98923.80;112743;1251;22372;-54
2023/03/10 06:13:37;;;;;;;;;;;;;;;6.51;99.75;98931.24;112745;1251;22411;-44
2023/03/10 06:16:04;;;;;;;;;;;;;;;6.52;99.25;98934.86;112655;1250;22400;-54
2023/03/10 06:18:30;;;;;;;;;;;;;;;6.53;99.04;98939.36;112475;1250;184811;-54
2023/03/10 06:20:58;;;;;;;;;;;;;;;6.54;98.48;98942.47;112475;1250;23461;-54
2023/03/10 06:23:25;;;;;;;;;;;;;;;6.53;98.41;98943.86;112500;1250;22506;-47
2023/03/10 06:25:58;;;;;;;;;;;;;;;6.54;98.00;98944.89;112435;1250;23148;-45
2023/03/10 06:28:26;;;;;;;;;;;;;;;6.53;96.31;98950.62;112440;1250;22901;-45
2023/03/10 06:30:54;;;;;;;;;;;;;;;6.52;96.01;98952.20;112418;1250;22402;-45
2023/03/10 06:33:24;;;;;;;;;;;;;;;6.51;95.81;98961.89;111987;1250;23258;-45
2023/03/10 06:35:56;;;;;;;;;;;;;;;6.52;94.67;98966.73;112254;1251;22788;-54
2023/03/10 06:38:23;;;;;;;;;;;;;;;6.52;94.37;98967.44;111789;1250;24237;-54
2023/03/10 06:40:50;;;;;;;;;;;;;;;6.50;93.43;98976.11;112350;1251;22562;-43
2023/03/10 06:43:17;;;;;;;;;;;;;;;6.42;92.47;98981.34;112487;1250;22368;-44
2023/03/10 06:45:44;;;;;;;;;;;;;;;6.31;91.92;98983.63;111671;1250;22501;-44
2023/03/10 06:48:11;;;;;;;;;;;;;;;6.22;91.11;98988.67;111331;1251;22508;-44
2023/03/10 06:50:43;;;;;;;;;;;;;;;6.16;89.38;98997.52;112271;1249;22479;-44
2023/03/10 06:53:14;;;;;;;;;;;;;;;6.11;89.12;99004.65;112496;1250;22606;-44
2023/03/10 06:55:41;;;;;;;;;;;;;;;6.08;89.73;99012.77;112168;1250;26504;-53
2023/03/10 06:58:10;;;;;;;;;;;;;;;6.06;88.96;99022.31;112234;1251;22847;-45
2023/03/10 07:00:38;;;;;;;;;;;;;;;6.04;88.71;99023.88;112589;1250;22415;-50
2023/03/10 07:03:10;;;;;;;;;;;;;;;6.02;88.11;99034.77;112186;1250;22503;-43
2023/03/10 07:05:37;;;;;;;;;;;;;;;6.04;87.61;99038.08;112234;1250;22599;-44
2023/03/10 07:08:04;;;;;;;;;;;;;;;6.08;87.72;99044.98;111360;1250;22560;-45
2023/03/10 07:10:31;;;;;;;;;;;;;;;6.15;86.90;99056.23;111862;1250;22492;-44
2023/03/10 07:12:58;;;;;;;;;;;;;;;6.18;85.80;99060.89;112155;1250;22867;-48
2023/03/10 07:15:31;;;;;;;;;;;;;;;6.23;84.51;99058.29;112196;1250;22483;-52
2023/03/10 07:17:59;;;;;;;;;;;;;;;6.29;83.38;99053.08;112362;1250;23141;-52
2023/03/10 07:20:25;;;;;;;;;;;;;;;6.36;83.10;99051.34;112310;1250;22837;-44
2023/03/10 07:22:53;;;;;;;;;;;;;;;6.45;82.12;99055.97;112408;1250;22985;-44
2023/03/10 07:25:19;;;;;;;;;;;;;;;6.53;81.59;99057.69;112518;1250;22398;-44
2023/03/10 07:27:46;;;;;;;;;;;;;;;6.61;81.54;99074.64;112416;1250;22420;-44
2023/03/10 07:30:14;;;;;;;;;;;;;;;6.65;80.53;99079.64;112584;1250;22491;-45
2023/03/10 07:32:42;;;;;;;;;;;;;;;6.62;80.78;99078.45;112535;1250;23080;-44
2023/03/10 07:35:09;;;;;;;;;;;;;;;6.61;80.87;99078.61;112610;1250;22471;-45
2023/03/10 07:37:36;;;;;;;;;;;;;;;6.64;80.56;99077.73;112635;1250;22403;-45
2023/03/10 07:40:04;;;;;;;;;;;;;;;6.70;80.83;99079.29;112582;1250;22468;-44
2023/03/10 07:42:31;;;;;;;;;;;;;;;6.74;81.01;99087.77;112564;1250;22361;-44
2023/03/10 07:44:57;;;;;;;;;;;;;;;6.81;81.31;99097.61;112670;1250;22514;-45
2023/03/10 07:47:24;;;;;;;;;;;;;;;6.85;80.89;99105.77;112721;1250;22938;-45
2023/03/10 07:49:51;;;;;;;;;;;;;;;6.82;80.86;99106.80;112741;1250;22389;-44
2023/03/10 07:52:18;;;;;;;;;;;;;;;6.83;81.37;99109.23;112625;1250;23276;-45
2023/03/10 07:54:45;;;;;;;;;;;;;;;6.88;81.69;99109.89;112605;1250;22458;-54
2023/03/10 07:57:12;;;;;;;;;;;;;;;6.98;81.83;99113.66;112598;1250;22465;-54
2023/03/10 07:59:39;;;;;;;;;;;;;;;7.07;81.84;99115.70;111645;1250;22485;-44
2023/03/10 08:02:06;;;;;;;;;;;;;;;7.13;81.75;99123.66;112740;1250;22415;-46
2023/03/10 08:04:33;;;;;;;;;;;;;;;7.20;81.65;99119.45;112745;1250;22425;-45
2023/03/10 08:07:01;;;;;;;;;;;;;;;7.26;80.91;99121.86;112726;1250;22437;-44
2023/03/10 08:09:28;;;;;;;;;;;;;;;7.27;80.37;99134.52;112711;1250;23030;-45
2023/03/10 08:11:58;;;;;;;;;;;;;;;7.20;79.75;99139.23;112686;1250;22425;-45
2023/03/10 08:14:29;;;;;;;;;;;;;;;7.08;79.99;99142.74;112609;1250;22488;-45
2023/03/10 08:16:57;;;;;;;;;;;;;;;6.95;80.59;99142.80;112601;1250;23119;-45
2023/03/10 08:19:24;;;;;;;;;;;;;;;6.85;81.26;99142.66;112587;1250;22492;-45
2023/03/10 08:21:52;;;;;;;;;;;;;;;6.80;81.83;99150.82;112625;1250;22420;-45
2023/03/10 08:24:20;;;;;;;;;;;;;;;6.76;81.85;99148.58;112076;1250;22980;-44
2023/03/10 08:26:47;;;;;;;;;;;;;;;6.75;82.38;99150.14;112563;1250;22519;-44
2023/03/10 08:29:18;;;;;;;;;;;;;;;6.74;82.04;99150.49;112683;1250;22355;-54
2023/03/10 08:31:44;;;;;;;;;;;;;;;6.69;82.13;99155.52;112600;1250;22401;-45
2023/03/10 08:34:11;;;;;;;;;;;;;;;6.61;82.46;99156.41;112589;1250;22398;-54
2023/03/10 08:36:42;;;;;;;;;;;;;;;6.54;82.67;99156.27;112638;1250;22385;-45
2023/03/10 08:39:10;;;;;;;;;;;;;;;6.45;82.73;99153.67;112601;1250;22561;-45
2023/03/10 08:41:41;;;;;;;;;;;;;;;6.35;83.33;99150.58;112526;1250;22383;-44
2023/03/10 08:44:10;;;;;;;;;;;;;;;6.32;83.58;99149.36;112625;1250;22476;-46
2023/03/10 08:46:38;;;;;;;;;;;;;;;6.34;83.94;99158.55;112543;1250;22477;-43
2023/03/10 08:49:09;;;;;;;;;;;;;;;6.37;84.17;99161.47;112593;1250;22329;-44
2023/03/10 08:51:37;;;;;;;;;;;;;;;6.42;83.75;99169.45;112248;1250;22553;-53
2023/03/10 08:54:30;;;;;;;;;;;;;;;6.44;82.79;99174.98;112284;1250;22349;-54
2023/03/10 08:57:05;;;;;;;;;;;;;;;6.39;82.42;99173.77;112566;1250;22747;-55
2023/03/10 08:59:33;;;;;;;;;;;;;;;6.37;81.84;99172.21;111698;1250;22493;-44
2023/03/10 09:02:02;;;;;;;;;;;;;;;6.39;82.18;99174.65;111709;1250;22485;-56
2023/03/10 09:07:46;;;;;;;;;;;;;;;6.39;81.24;99191.63;112396;1250;22378;-54
2023/03/10 09:10:43;;;;;;;;;;;;;;;6.36;81.00;99194.21;112446;1250;22875;-55
2023/03/10 09:13:17;;;;;;;;;;;;;;;6.36;81.11;99193.69;112507;1250;22439;-52
2023/03/10 09:15:44;;;;;;;;;;;;;;;6.39;80.95;99194.91;112469;1250;22370;-44
2023/03/10 09:18:13;;;;;;;;;;;;;;;6.45;80.64;99196.81;111681;1250;22504;-51
2023/03/10 09:20:40;;;;;;;;;;;;;;;6.49;81.02;99194.03;112390;1250;22473;-45
2023/03/10 09:23:07;;;;;;;;;;;;;;;6.60;80.52;99193.49;112630;1250;22459;-44
2023/03/10 09:25:34;;;;;;;;;;;;;;;6.63;79.70;99206.66;112649;1250;23277;-44
2023/03/10 09:28:01;;;;;;;;;;;;;;;6.60;79.70;99212.02;112724;1250;23188;-44
2023/03/10 09:30:28;;;;;;;;;;;;;;;6.58;78.78;99210.65;112728;1250;22385;-44
2023/03/10 09:32:58;;;;;;;;;;;;;;;6.55;78.90;99207.02;112578;1250;23639;-44
2023/03/10 09:35:25;;;;;;;;;;;;;;;6.54;78.66;99207.70;112745;1250;22420;-43
2023/03/10 09:37:52;;;;;;;;;;;;;;;6.54;78.40;99207.88;112708;1250;22456;-44
2023/03/10 09:40:19;;;;;;;;;;;;;;;6.52;78.51;99203.21;112656;1250;23006;-44
2023/03/10 09:43:01;;;;;;;;;;;;;;;6.56;78.60;99205.45;112486;1250;22455;-52
2023/03/10 09:45:54;;;;;;;;;;;;;;;6.59;77.20;99201.47;112502;1250;22401;-54
2023/03/10 09:48:41;;;;;;;;;;;;;;;6.60;77.52;99205.45;110928;1256;23479;-44
2023/03/10 09:51:15;;;;;;;;;;;;;;;6.70;77.41;99212.90;111987;1256;23361;-52
2023/03/10 09:53:53;;;;;;;;;;;;;;;6.79;76.71;99213.56;112017;1256;22411;-52
2023/03/10 09:56:30;;;;;;;;;;;;;;;6.82;76.10;99213.20;111748;1256;22556;-52
2023/03/10 09:59:09;;;;;;;;;;;;;;;6.81;75.95;99228.29;111895;1256;23259;-51
2023/03/10 10:01:37;;;;;;;;;;;;;;;6.84;76.01;99230.04;111966;1256;22448;-45
2023/03/10 10:04:15;;;;;;;;;;;;;;;6.85;75.43;99228.11;111750;1256;23347;-45
2023/03/10 10:06:45;;;;;;;;;;;;;;;6.89;75.36;99226.02;111713;1256;23085;-52
2023/03/10 10:09:28;;;;;;;;;;;;;;;6.99;75.67;99225.66;111706;1256;22962;-53
2023/03/10 10:11:56;;;;;;;;;;;;;;;7.08;75.26;99225.11;111980;1256;22451;-53
2023/03/10 10:14:33;;;;;;;;;;;;;;;7.17;74.78;99231.52;112024;1256;23264;-52
2023/03/10 10:17:03;;;;;;;;;;;;;;;7.23;73.57;99233.22;112028;1256;22414;-54
2023/03/10 10:19:35;;;;;;;;;;;;;;;7.26;73.03;99233.56;112026;1256;22485;-59
2023/03/10 10:22:14;;;;;;;;;;;;;;;7.29;72.84;99235.45;111643;1248;22470;-44
2023/03/10 10:25:00;;;;;;;;;;;;;;;7.32;72.68;99237.18;112055;1250;23254;-52
2023/03/10 10:27:29;;;;;;;;;;;;;;;7.44;73.06;99235.21;112584;1250;22364;-43
2023/03/10 10:30:26;;;;;;;;;;;;;;;7.55;72.74;99234.99;112643;1250;22341;-44
2023/03/10 10:33:42;;;;;;;;;;;;;;;7.76;71.77;99230.38;111936;1250;23541;-54
2023/03/10 10:36:18;;;;;;;;;;;;;;;7.89;70.92;99221.10;112012;1250;22470;-54
2023/03/10 10:38:51;;;;;;;;;;;;;;;8.10;70.83;99214.36;112363;1250;22533;-45
2023/03/10 10:41:25;;;;;;;;;;;;;;;8.39;69.29;99220.58;112438;1250;23379;-42
2023/03/10 10:44:08;;;;;;;;;;;;;;;8.71;68.17;99220.14;112393;1250;22459;-44
2023/03/10 10:46:53;;;;;;;;;;;;;;;9.31;66.32;99215.31;112497;1250;23172;-42
2023/03/10 10:49:32;;;;;;;;;;;;;;;10.15;65.39;99208.60;112466;1250;22432;-43
2023/03/10 10:52:00;;;;;;;;;;;;;;;11.27;62.89;99200.16;112632;1250;22835;-44
2023/03/10 10:54:33;;;;;;;;;;;;;;;12.11;58.58;99194.35;112575;1250;22391;-43
2023/03/10 10:57:01;;;;;;;;;;;;;;;12.65;56.13;99191.45;112496;1250;22881;-43
2023/03/10 10:59:28;;;;;;;;;;;;;;;13.19;53.55;99187.91;112528;1250;23195;-44
2023/03/10 11:01:56;;;;;;;;;;;;;;;13.45;51.75;99177.02;112554;1250;22424;-43
2023/03/10 11:04:24;;;;;;;;;;;;;;;13.64;51.37;99173.98;112541;1250;22532;-43
2023/03/10 11:06:51;;;;;;;;;;;;;;;13.99;50.11;99160.80;112600;1250;23131;-44
2023/03/10 11:09:19;;;;;;;;;;;;;;;14.30;49.36;99156.11;112592;1250;23084;-44
2023/03/10 11:11:58;;;;;;;;;;;;;;;14.62;48.64;99147.36;112588;1250;22485;-44
2023/03/10 11:14:50;;;;;;;;;;;;;;;15.11;47.53;99146.33;112664;1250;22877;-43
2023/03/10 11:17:37;;;;;;;;;;;;;;;15.61;46.31;99156.22;112633;1250;22398;-44
2023/03/10 11:20:22;;;;;;;;;;;;;;;16.21;44.76;99156.48;112451;1250;23320;-51
2023/03/10 11:23:08;;;;;;;;;;;;;;;16.62;43.57;99165.14;112493;1250;23178;-51
2023/03/10 11:25:47;;;;;;;;;;;;;;;16.83;42.77;99168.50;112627;1250;22384;-44
2023/03/10 11:28:33;;;;;;;;;;;;;;;17.11;41.81;99167.45;112587;1250;22844;-43
2023/03/10 11:31:06;;;;;;;;;;;;;;;17.31;41.39;99172.90;112680;1250;22444;-44
2023/03/10 11:33:34;;;;;;;;;;;;;;;17.60;40.46;99182.68;112691;1250;22369;-43
2023/03/10 11:36:24;;;;;;;;;;;;;;;17.75;40.06;99191.54;112713;1250;22883;-43
2023/03/10 11:38:58;;;;;;;;;;;;;;;18.03;39.05;99191.27;112211;1251;22572;-44
2023/03/10 11:41:26;;;;;;;;;;;;;;;17.88;37.54;99184.73;112357;1250;22872;-52
2023/03/10 11:43:58;;;;;;;;;;;;;;;17.30;38.48;99182.11;111559;1250;23278;-44
2023/03/10 11:46:43;;;;;;;;;;;;;;;16.78;39.76;99179.31;112158;1250;22828;-53
2023/03/10 11:49:16;;;;;;;;;;;;;;;16.51;40.36;99183.91;112305;1250;22486;-43
2023/03/10 11:52:00;;;;;;;;;;;;;;;16.21;40.70;99182.36;111925;1250;22500;-43
2023/03/10 11:54:35;;;;;;;;;;;;;;;15.74;41.39;99185.45;112472;1250;22472;-42
2023/03/10 11:57:17;;;;;;;;;;;;;;;15.35;41.44;99185.11;112430;1250;22592;-43
2023/03/10 11:59:55;;;;;;;;;;;;;;;14.57;42.57;99183.48;112486;1249;23110;-50
2023/03/10 12:02:23;;;;;;;;;;;;;;;14.18;44.08;99174.08;112419;1250;22398;-44
2023/03/10 12:04:52;;;;;;;;;;;;;;;14.19;44.31;99160.00;112694;1250;23093;-50
2023/03/10 12:07:30;;;;;;;;;;;;;;;14.25;44.72;99151.55;112514;1250;22589;-50
2023/03/10 12:09:58;;;;;;;;;;;;;;;14.28;44.64;99148.30;112646;1250;22362;-50
2023/03/10 12:12:38;;;;;;;;;;;;;;;14.14;44.63;99154.20;112579;1250;23177;-42
2023/03/10 12:15:18;;;;;;;;;;;;;;;13.76;45.02;99159.09;112633;1250;22486;-50
2023/03/10 12:17:48;;;;;;;;;;;;;;;13.40;45.41;99162.44;112543;1250;23519;-43
2023/03/10 12:20:17;;;;;;;;;;;;;;;13.06;46.19;99166.54;112575;1250;22412;-50
2023/03/10 12:22:51;;;;;;;;;;;;;;;12.88;46.80;99162.67;112694;1250;23654;-50
2023/03/10 12:25:27;;;;;;;;;;;;;;;12.83;47.08;99162.11;112719;1250;22406;-43
2023/03/10 12:28:12;;;;;;;;;;;;;;;12.98;47.29;99164.66;112784;1250;22342;-50
2023/03/10 12:30:42;;;;;;;;;;;;;;;13.09;47.26;99166.44;112846;1250;23068;-52
2023/03/10 12:33:29;;;;;;;;;;;;;;;13.18;47.28;99167.80;112009;1250;22449;-43
2023/03/10 12:36:00;;;;;;;;;;;;;;;13.29;47.09;99160.50;111992;1250;22539;-43
2023/03/10 12:38:34;;;;;;;;;;;;;;;13.27;47.46;99150.20;110696;1251;22491;-43
2023/03/10 12:41:01;;;;;;;;;;;;;;;13.31;47.21;99152.90;110541;1250;23196;-44
2023/03/10 12:43:42;;;;;;;;;;;;;;;13.05;47.14;99155.02;111643;1250;22527;-44
2023/03/10 12:46:10;;;;;;;;;;;;;;;12.90;47.88;99150.02;111856;1250;22577;-50
2023/03/10 12:48:39;;;;;;;;;;;;;;;13.12;47.61;99149.05;110034;1250;23116;-51
2023/03/10 12:51:10;;;;;;;;;;;;;;;13.44;47.35;99144.13;111474;1250;22512;-42
2023/03/10 12:53:45;;;;;;;;;;;;;;;13.67;47.21;99145.52;112540;1250;22470;-52
2023/03/10 12:56:20;;;;;;;;;;;;;;;13.88;46.71;99148.90;112285;1250;25365;-44
2023/03/10 12:58:56;;;;;;;;;;;;;;;13.98;46.35;99152.26;112852;1250;22383;-50
2023/03/10 13:01:24;;;;;;;;;;;;;;;13.89;46.17;99151.48;112722;1250;22448;-43
2023/03/10 13:03:51;;;;;;;;;;;;;;;13.70;46.64;99143.31;110800;1250;22522;-43
2023/03/10 13:06:20;;;;;;;;;;;;;;;13.57;46.91;99142.84;110278;1250;23236;-50
2023/03/10 13:08:52;;;;;;;;;;;;;;;13.41;47.05;99148.24;110733;1250;24237;-44
2023/03/10 13:11:23;;;;;;;;;;;;;;;13.49;46.94;99150.98;110245;1250;23855;-45
2023/03/10 13:13:56;;;;;;;;;;;;;;;13.60;46.67;99148.38;110249;1250;22523;-44
2023/03/10 13:16:22;;;;;;;;;;;;;;;13.53;46.70;99146.29;111033;1250;22477;-49
2023/03/10 13:18:50;;;;;;;;;;;;;;;13.50;46.88;99151.97;110529;1250;22645;-49
2023/03/10 13:21:23;;;;;;;;;;;;;;;13.60;46.85;99148.19;110190;1250;22503;-43
2023/03/10 13:23:51;;;;;;;;;;;;;;;13.84;46.44;99142.36;110786;1250;23375;-44
2023/03/10 13:26:18;;;;;;;;;;;;;;;14.15;46.06;99136.29;112862;1250;22397;-43
2023/03/10 13:28:55;;;;;;;;;;;;;;;14.42;45.53;99129.39;112868;1250;22380;-51
2023/03/10 13:31:23;;;;;;;;;;;;;;;14.53;44.93;99136.25;112830;1250;23165;-47
2023/03/10 13:33:50;;;;;;;;;;;;;;;14.54;44.80;99135.52;112845;1250;23140;-43
2023/03/10 13:36:27;;;;;;;;;;;;;;;14.48;44.61;99122.39;112845;1250;22402;-43
2023/03/10 13:38:56;;;;;;;;;;;;;;;14.28;44.69;99121.82;112889;1250;23107;-44
2023/03/10 13:41:22;;;;;;;;;;;;;;;14.10;45.12;99122.60;112397;1250;23056;-43
2023/03/10 13:43:50;;;;;;;;;;;;;;;13.90;45.30;99123.59;110472;1250;25311;-43
2023/03/10 13:46:30;;;;;;;;;;;;;;;13.71;45.68;99128.05;110444;1250;25538;-44
2023/03/10 13:49:06;;;;;;;;;;;;;;;13.75;46.13;99118.83;112129;1250;23250;-52
2023/03/10 13:51:34;;;;;;;;;;;;;;;13.89;46.10;99117.16;111789;1250;26687;-45
2023/03/10 13:54:17;;;;;;;;;;;;;;;13.95;45.71;99117.31;110920;1250;27887;-44
2023/03/10 13:56:44;;;;;;;;;;;;;;;13.85;45.73;99112.37;109983;1250;22613;-44
2023/03/10 13:59:14;;;;;;;;;;;;;;;13.75;45.81;99105.86;110546;1250;24345;-54
2023/03/10 14:01:48;;;;;;;;;;;;;;;13.67;45.95;99100.15;111561;1250;22466;-43
2023/03/10 14:04:16;;;;;;;;;;;;;;;13.49;46.35;99099.64;111270;1250;23182;-51
